EXS49MY EGNX-LBBG
Flight info
| Callsign | EXS49MY |
|---|---|
| Flight time | N/A |
| Altitude | 39000 |
| Route | SAPCO Y53 DTY P166 BANTO P155 SIVDA P137 REDFA DCT TACHA DCT NOLRU DCT MISGO DCT GMH DCT EKSAK DCT SWALM DCT GASKA DCT ENITA DCT ETVIS DCT BUDWA DCT BUDEX DCT MASUR DCT BEGLA DCT ZOLKU DCT VAJDI DCT PUSTA DCT TEGRI DCT GESBA DCT LAMIT DCT VAMON DCT RASUB DCT BULEN L742 ESENA |
| Aircraft | B738/M-SDE2E3FGHIRWXY/LB1 |
Departure
| Time | 2026-05-06 10:07 |
|---|---|
| Airport | East Midlands Airport (EGNX) |
Arrival
| Time | N/A |
|---|---|
| Airport | Burgas Airport (LBBG) |
| Time | Latitude | Longitude | Altitude | Speed | Heading |
|---|---|---|---|---|---|
| 2026-05-06 09:50 | 52.82729 | -1.32985 | 315 ft | 0 kts | 179° |
| 2026-05-06 09:58 | 52.82733 | -1.32985 | 315 ft | 2 kts | 180° |
| 2026-05-06 09:58 | 52.82748 | -1.32985 | 315 ft | 2 kts | 178° |
| 2026-05-06 09:59 | 52.82763 | -1.32986 | 315 ft | 2 kts | 179° |
| 2026-05-06 09:59 | 52.82778 | -1.32981 | 315 ft | 2 kts | 213° |
| 2026-05-06 09:59 | 52.82789 | -1.32963 | 315 ft | 2 kts | 243° |
| 2026-05-06 09:59 | 52.82793 | -1.32938 | 315 ft | 2 kts | 273° |
| 2026-05-06 10:00 | 52.82793 | -1.32912 | 315 ft | 2 kts | 267° |
| 2026-05-06 10:00 | 52.82793 | -1.32906 | 315 ft | 0 kts | 266° |
| 2026-05-06 10:02 | 52.82793 | -1.32908 | 315 ft | 0 kts | 266° |
| 2026-05-06 10:02 | 52.82792 | -1.32933 | 315 ft | 4 kts | 268° |
| 2026-05-06 10:02 | 52.82791 | -1.33045 | 315 ft | 13 kts | 269° |
| 2026-05-06 10:03 | 52.82823 | -1.33138 | 315 ft | 8 kts | 343° |
| 2026-05-06 10:03 | 52.82887 | -1.33149 | 315 ft | 10 kts | 355° |
| 2026-05-06 10:03 | 52.82921 | -1.33257 | 315 ft | 14 kts | 270° |
| 2026-05-06 10:03 | 52.82917 | -1.33444 | 315 ft | 17 kts | 268° |
| 2026-05-06 10:04 | 52.82913 | -1.33666 | 315 ft | 20 kts | 269° |
| 2026-05-06 10:04 | 52.82909 | -1.33910 | 315 ft | 22 kts | 268° |
| 2026-05-06 10:04 | 52.82904 | -1.34171 | 315 ft | 22 kts | 270° |
| 2026-05-06 10:04 | 52.82904 | -1.34429 | 315 ft | 21 kts | 269° |
| 2026-05-06 10:05 | 52.82899 | -1.34680 | 315 ft | 20 kts | 269° |
| 2026-05-06 10:05 | 52.82908 | -1.34895 | 315 ft | 12 kts | 308° |
| 2026-05-06 10:05 | 52.82945 | -1.34923 | 315 ft | 0 kts | 353° |
| 2026-05-06 10:06 | 52.82962 | -1.34926 | 315 ft | 5 kts | 355° |
| 2026-05-06 10:06 | 52.83021 | -1.34926 | 315 ft | 11 kts | 5° |
| 2026-05-06 10:06 | 52.83060 | -1.34847 | 315 ft | 10 kts | 90° |
| 2026-05-06 10:07 | 52.83064 | -1.34609 | 315 ft | 41 kts | 88° |
| 2026-05-06 10:07 | 52.83081 | -1.33694 | 315 ft | 112 kts | 88° |
| 2026-05-06 10:07 | 52.83108 | -1.32027 | 327 ft | 169 kts | 88° |
| 2026-05-06 10:07 | 52.83121 | -1.30028 | 945 ft | 174 kts | 88° |
| 2026-05-06 10:08 | 52.83001 | -1.27910 | 1538 ft | 190 kts | 94° |
| 2026-05-06 10:08 | 52.82856 | -1.25582 | 1987 ft | 212 kts | 92° |
| 2026-05-06 10:08 | 52.82543 | -1.22996 | 2135 ft | 248 kts | 113° |
| 2026-05-06 10:08 | 52.81398 | -1.20551 | 2560 ft | 272 kts | 135° |
| 2026-05-06 10:09 | 52.80042 | -1.18371 | 3477 ft | 272 kts | 135° |
| 2026-05-06 10:09 | 52.78595 | -1.16259 | 4241 ft | 277 kts | 150° |
| 2026-05-06 10:09 | 52.76733 | -1.15336 | 4972 ft | 279 kts | 182° |
| 2026-05-06 10:09 | 52.74842 | -1.15907 | 5785 ft | 276 kts | 201° |
| 2026-05-06 10:10 | 52.73056 | -1.17130 | 6467 ft | 277 kts | 219° |
| 2026-05-06 10:10 | 52.71657 | -1.19239 | 7442 ft | 265 kts | 234° |
| 2026-05-06 10:10 | 52.70396 | -1.21446 | 8354 ft | 264 kts | 228° |
| 2026-05-06 10:10 | 52.68973 | -1.23443 | 9076 ft | 268 kts | 224° |
| 2026-05-06 10:11 | 52.67515 | -1.25369 | 9991 ft | 264 kts | 223° |
| 2026-05-06 10:11 | 52.66030 | -1.27303 | 10450 ft | 277 kts | 223° |
| 2026-05-06 10:11 | 52.64435 | -1.29369 | 10532 ft | 302 kts | 223° |
| 2026-05-06 10:11 | 52.62721 | -1.31599 | 11071 ft | 311 kts | 223° |
| 2026-05-06 10:12 | 52.60981 | -1.33825 | 11788 ft | 314 kts | 219° |
| 2026-05-06 10:12 | 52.58965 | -1.35353 | 12433 ft | 327 kts | 197° |
| 2026-05-06 10:12 | 52.56619 | -1.35455 | 13208 ft | 338 kts | 179° |
| 2026-05-06 10:12 | 52.54303 | -1.34288 | 13746 ft | 359 kts | 158° |
| 2026-05-06 10:13 | 52.52334 | -1.31573 | 14362 ft | 379 kts | 133° |
| 2026-05-06 10:13 | 52.51121 | -1.27529 | 14921 ft | 396 kts | 110° |
| 2026-05-06 10:13 | 52.50457 | -1.23100 | 15484 ft | 402 kts | 107° |
| 2026-05-06 10:13 | 52.49830 | -1.18549 | 15988 ft | 407 kts | 107° |
| 2026-05-06 10:14 | 52.49186 | -1.13938 | 16554 ft | 411 kts | 107° |
| 2026-05-06 10:14 | 52.48591 | -1.09202 | 17073 ft | 417 kts | 103° |
| 2026-05-06 10:14 | 52.48152 | -1.04440 | 17585 ft | 422 kts | 101° |
| 2026-05-06 10:14 | 52.47732 | -0.99584 | 18064 ft | 427 kts | 101° |
| 2026-05-06 10:15 | 52.47307 | -0.94712 | 18550 ft | 432 kts | 102° |
| 2026-05-06 10:15 | 52.46869 | -0.89745 | 19024 ft | 436 kts | 102° |
| 2026-05-06 10:15 | 52.46424 | -0.84754 | 19488 ft | 441 kts | 102° |
| 2026-05-06 10:15 | 52.45965 | -0.79645 | 19950 ft | 445 kts | 102° |
| 2026-05-06 10:16 | 52.45507 | -0.74585 | 20394 ft | 450 kts | 102° |
| 2026-05-06 10:16 | 52.45034 | -0.69388 | 20840 ft | 454 kts | 102° |
| 2026-05-06 10:16 | 52.44557 | -0.64192 | 21269 ft | 458 kts | 102° |
| 2026-05-06 10:16 | 52.44072 | -0.58923 | 21697 ft | 462 kts | 102° |
| 2026-05-06 10:17 | 52.43581 | -0.53629 | 22109 ft | 467 kts | 102° |
| 2026-05-06 10:17 | 52.43086 | -0.48319 | 22516 ft | 471 kts | 102° |
| 2026-05-06 10:17 | 52.42584 | -0.42963 | 22911 ft | 475 kts | 102° |
| 2026-05-06 10:17 | 52.42070 | -0.37507 | 23306 ft | 479 kts | 103° |
| 2026-05-06 10:18 | 52.41555 | -0.32043 | 23700 ft | 482 kts | 103° |
| 2026-05-06 10:18 | 52.41032 | -0.26482 | 24055 ft | 486 kts | 103° |
| 2026-05-06 10:18 | 52.40511 | -0.20981 | 24414 ft | 489 kts | 103° |
| 2026-05-06 10:18 | 52.39976 | -0.15380 | 24763 ft | 493 kts | 104° |
| 2026-05-06 10:19 | 52.39433 | -0.09731 | 25111 ft | 497 kts | 104° |
| 2026-05-06 10:19 | 52.38883 | -0.04048 | 25448 ft | 500 kts | 104° |
| 2026-05-06 10:19 | 52.38326 | 0.01669 | 25782 ft | 503 kts | 104° |
| 2026-05-06 10:19 | 52.37757 | 0.07472 | 26106 ft | 507 kts | 104° |
| 2026-05-06 10:20 | 52.37191 | 0.13210 | 26422 ft | 510 kts | 104° |
| 2026-05-06 10:20 | 52.36607 | 0.19108 | 26740 ft | 514 kts | 104° |
| 2026-05-06 10:20 | 52.36025 | 0.24946 | 27045 ft | 517 kts | 104° |
| 2026-05-06 10:20 | 52.35434 | 0.30835 | 27348 ft | 520 kts | 104° |
| 2026-05-06 10:21 | 52.34842 | 0.36717 | 27639 ft | 524 kts | 104° |
| 2026-05-06 10:21 | 52.34238 | 0.42670 | 27933 ft | 527 kts | 104° |
| 2026-05-06 10:21 | 52.33622 | 0.48725 | 28219 ft | 530 kts | 104° |
| 2026-05-06 10:21 | 52.33003 | 0.54765 | 28509 ft | 533 kts | 104° |
| 2026-05-06 10:22 | 52.32381 | 0.60806 | 28785 ft | 536 kts | 104° |
| 2026-05-06 10:22 | 52.31745 | 0.66957 | 28985 ft | 541 kts | 105° |
| 2026-05-06 10:22 | 52.30480 | 0.79229 | 28981 ft | 538 kts | 105° |
| 2026-05-06 10:23 | 52.29201 | 0.91450 | 29151 ft | 538 kts | 105° |
| 2026-05-06 10:23 | 52.28548 | 0.97620 | 29378 ft | 542 kts | 105° |
| 2026-05-06 10:23 | 52.27893 | 1.03762 | 29650 ft | 544 kts | 105° |
| 2026-05-06 10:24 | 52.27229 | 1.09958 | 29927 ft | 546 kts | 105° |
| 2026-05-06 10:24 | 52.26563 | 1.16137 | 30192 ft | 548 kts | 105° |
| 2026-05-06 10:24 | 52.25891 | 1.22338 | 30478 ft | 549 kts | 105° |
| 2026-05-06 10:24 | 52.25210 | 1.28587 | 30773 ft | 550 kts | 105° |
| 2026-05-06 10:25 | 52.24526 | 1.34841 | 31076 ft | 551 kts | 105° |
| 2026-05-06 10:25 | 52.23843 | 1.41040 | 31375 ft | 552 kts | 105° |
| 2026-05-06 10:25 | 52.23150 | 1.47309 | 31675 ft | 553 kts | 105° |
| 2026-05-06 10:25 | 52.22454 | 1.53559 | 31972 ft | 553 kts | 105° |
| 2026-05-06 10:26 | 52.21760 | 1.59767 | 32262 ft | 554 kts | 105° |
| 2026-05-06 10:26 | 52.21049 | 1.66099 | 32558 ft | 554 kts | 107° |
| 2026-05-06 10:26 | 52.20352 | 1.72338 | 32826 ft | 555 kts | 107° |
| 2026-05-06 10:26 | 52.19653 | 1.78573 | 33090 ft | 555 kts | 107° |
| 2026-05-06 10:27 | 52.18943 | 1.84842 | 33343 ft | 556 kts | 107° |
| 2026-05-06 10:27 | 52.18231 | 1.91084 | 33588 ft | 556 kts | 107° |
| 2026-05-06 10:27 | 52.17514 | 1.97329 | 33829 ft | 557 kts | 107° |
| 2026-05-06 10:27 | 52.16785 | 2.03629 | 34068 ft | 557 kts | 107° |
| 2026-05-06 10:28 | 52.16058 | 2.09885 | 34342 ft | 557 kts | 107° |
| 2026-05-06 10:28 | 52.15323 | 2.16181 | 34615 ft | 556 kts | 107° |
| 2026-05-06 10:28 | 52.14587 | 2.22446 | 34879 ft | 556 kts | 107° |
| 2026-05-06 10:28 | 52.13849 | 2.28698 | 35142 ft | 556 kts | 107° |
| 2026-05-06 10:29 | 52.13104 | 2.34972 | 35400 ft | 555 kts | 107° |
| 2026-05-06 10:29 | 52.12540 | 2.41302 | 35639 ft | 560 kts | 99° |
| 2026-05-06 10:29 | 52.12337 | 2.47702 | 35868 ft | 564 kts | 92° |
| 2026-05-06 10:29 | 52.12757 | 2.54237 | 36091 ft | 567 kts | 77° |
| 2026-05-06 10:30 | 52.13748 | 2.60438 | 36433 ft | 565 kts | 72° |
| 2026-05-06 10:30 | 52.14883 | 2.66654 | 36632 ft | 566 kts | 72° |
| 2026-05-06 10:30 | 52.16069 | 2.72938 | 36853 ft | 566 kts | 72° |
| 2026-05-06 10:30 | 52.17227 | 2.79066 | 37068 ft | 566 kts | 72° |
| 2026-05-06 10:31 | 52.18407 | 2.85335 | 37279 ft | 566 kts | 72° |
| 2026-05-06 10:31 | 52.19565 | 2.91512 | 37488 ft | 566 kts | 72° |
| 2026-05-06 10:31 | 52.20719 | 2.97721 | 37717 ft | 565 kts | 71° |
| 2026-05-06 10:31 | 52.21875 | 3.03964 | 37943 ft | 564 kts | 71° |
| 2026-05-06 10:32 | 52.22979 | 3.10163 | 38161 ft | 564 kts | 75° |
| 2026-05-06 10:32 | 52.23767 | 3.16566 | 38357 ft | 565 kts | 81° |
| 2026-05-06 10:32 | 52.24080 | 3.22977 | 38494 ft | 564 kts | 94° |
| 2026-05-06 10:32 | 52.23646 | 3.29367 | 38648 ft | 557 kts | 105° |
| 2026-05-06 10:33 | 52.22715 | 3.35561 | 38810 ft | 551 kts | 114° |
| 2026-05-06 10:33 | 52.21381 | 3.41499 | 38908 ft | 548 kts | 118° |
| 2026-05-06 10:33 | 52.18594 | 3.53239 | 38892 ft | 548 kts | 118° |
| 2026-05-06 10:34 | 52.15806 | 3.64901 | 38884 ft | 545 kts | 118° |
| 2026-05-06 10:34 | 52.13012 | 3.76532 | 38884 ft | 542 kts | 119° |
| 2026-05-06 10:35 | 52.10190 | 3.88153 | 38885 ft | 544 kts | 119° |
| 2026-05-06 10:35 | 52.07373 | 3.99658 | 38885 ft | 546 kts | 119° |
| 2026-05-06 10:36 | 52.04515 | 4.11266 | 38884 ft | 545 kts | 119° |
| 2026-05-06 10:36 | 52.01657 | 4.22799 | 38885 ft | 545 kts | 119° |
| 2026-05-06 10:37 | 51.98804 | 4.34248 | 38885 ft | 545 kts | 119° |
| 2026-05-06 10:37 | 51.95920 | 4.45761 | 38885 ft | 545 kts | 119° |
| 2026-05-06 10:38 | 51.93012 | 4.57309 | 38885 ft | 545 kts | 119° |
| 2026-05-06 10:38 | 51.90100 | 4.68823 | 38878 ft | 545 kts | 120° |
| 2026-05-06 10:39 | 51.87212 | 4.80247 | 38866 ft | 543 kts | 120° |
| 2026-05-06 10:39 | 51.84301 | 4.91639 | 38860 ft | 542 kts | 120° |
| 2026-05-06 10:40 | 51.81361 | 5.03073 | 38857 ft | 540 kts | 119° |
| 2026-05-06 10:40 | 51.78425 | 5.14458 | 38857 ft | 537 kts | 119° |
| 2026-05-06 10:41 | 51.75487 | 5.25790 | 38858 ft | 538 kts | 119° |
| 2026-05-06 10:41 | 51.72520 | 5.37169 | 38858 ft | 539 kts | 119° |
| 2026-05-06 10:42 | 51.69547 | 5.48508 | 38857 ft | 539 kts | 119° |
| 2026-05-06 10:42 | 51.66574 | 5.59789 | 38857 ft | 539 kts | 119° |
| 2026-05-06 10:43 | 51.63579 | 5.71125 | 38858 ft | 538 kts | 120° |
| 2026-05-06 10:44 | 51.59090 | 5.88039 | 38858 ft | 538 kts | 120° |
| 2026-05-06 10:44 | 51.56093 | 5.99234 | 38858 ft | 539 kts | 120° |
| 2026-05-06 10:45 | 51.53049 | 6.10556 | 38858 ft | 538 kts | 120° |
| 2026-05-06 10:45 | 51.50374 | 6.21991 | 38857 ft | 543 kts | 111° |
| 2026-05-06 10:46 | 51.48418 | 6.34033 | 38850 ft | 546 kts | 108° |
| 2026-05-06 10:46 | 51.46603 | 6.46120 | 38836 ft | 547 kts | 107° |
| 2026-05-06 10:47 | 51.44816 | 6.58185 | 38831 ft | 547 kts | 107° |
| 2026-05-06 10:47 | 51.43055 | 6.70128 | 38830 ft | 546 kts | 108° |
| 2026-05-06 10:48 | 51.41284 | 6.82159 | 38831 ft | 545 kts | 108° |
| 2026-05-06 10:48 | 51.39075 | 6.93947 | 38832 ft | 541 kts | 116° |
| 2026-05-06 10:49 | 51.36428 | 7.05556 | 38830 ft | 542 kts | 115° |
| 2026-05-06 10:49 | 51.33793 | 7.17020 | 38829 ft | 543 kts | 114° |
| 2026-05-06 10:50 | 51.31130 | 7.28630 | 38819 ft | 543 kts | 114° |
| 2026-05-06 10:50 | 51.28483 | 7.40154 | 38808 ft | 542 kts | 114° |
| 2026-05-06 10:51 | 51.25815 | 7.51691 | 38804 ft | 542 kts | 114° |
| 2026-05-06 10:51 | 51.23140 | 7.63186 | 38804 ft | 542 kts | 114° |
| 2026-05-06 10:52 | 51.20470 | 7.74650 | 38803 ft | 542 kts | 114° |
| 2026-05-06 10:52 | 51.17793 | 7.86074 | 38802 ft | 542 kts | 114° |
| 2026-05-06 10:53 | 51.15200 | 7.97582 | 38795 ft | 543 kts | 112° |
| 2026-05-06 10:53 | 51.12703 | 8.09263 | 38783 ft | 544 kts | 112° |
| 2026-05-06 10:54 | 51.10204 | 8.20837 | 38777 ft | 543 kts | 112° |
| 2026-05-06 10:54 | 51.07686 | 8.32387 | 38781 ft | 543 kts | 112° |
| 2026-05-06 10:55 | 51.05144 | 8.43961 | 38781 ft | 543 kts | 112° |
| 2026-05-06 10:55 | 51.02367 | 8.55329 | 38790 ft | 540 kts | 118° |
| 2026-05-06 10:56 | 50.98536 | 8.65670 | 38797 ft | 528 kts | 133° |
| 2026-05-06 10:56 | 50.94055 | 8.75098 | 38784 ft | 524 kts | 133° |
| 2026-05-06 10:57 | 50.89542 | 8.84395 | 38778 ft | 521 kts | 133° |
| 2026-05-06 10:57 | 50.85029 | 8.93612 | 38776 ft | 521 kts | 133° |
| 2026-05-06 10:58 | 50.80468 | 9.02864 | 38778 ft | 527 kts | 132° |